PDA1204 UKWW-LATI
Flight info
| Callsign | PDA1204 |
|---|---|
| Flight time | 1h 42m |
| Altitude | 36000 |
| Route | KOROP DCT BUKOV DCT ALOXU DCT LOMOS DCT DOLAP DCT ODRAS |
| Aircraft | A321/M-SDE3FGHIJ4RWY/LB1 |
Departure
| Time | 2026-05-07 10:41 |
|---|---|
| Airport | Vinnytsia/Gavyryshivka International Airport (UKWW) |
Arrival
| Time | 2026-05-07 12:23 |
|---|---|
| Airport | Tirana International Airport Mother Teresa (LATI) |
| Time | Latitude | Longitude | Altitude | Speed | Heading |
|---|---|---|---|---|---|
| 2026-05-07 10:20 | 49.24290 | 28.60614 | 976 ft | 0 kts | 317° |
| 2026-05-07 10:37 | 49.24300 | 28.60606 | 983 ft | 7 kts | 335° |
| 2026-05-07 10:37 | 49.24326 | 28.60647 | 980 ft | 4 kts | 114° |
| 2026-05-07 10:37 | 49.24304 | 28.60690 | 976 ft | 9 kts | 106° |
| 2026-05-07 10:37 | 49.24357 | 28.60821 | 978 ft | 17 kts | 50° |
| 2026-05-07 10:38 | 49.24438 | 28.60964 | 979 ft | 18 kts | 45° |
| 2026-05-07 10:38 | 49.24545 | 28.60980 | 970 ft | 18 kts | 322° |
| 2026-05-07 10:38 | 49.24643 | 28.60853 | 971 ft | 18 kts | 319° |
| 2026-05-07 10:38 | 49.24741 | 28.60717 | 971 ft | 22 kts | 317° |
| 2026-05-07 10:39 | 49.24853 | 28.60562 | 977 ft | 21 kts | 320° |
| 2026-05-07 10:39 | 49.24969 | 28.60407 | 978 ft | 22 kts | 317° |
| 2026-05-07 10:39 | 49.25057 | 28.60245 | 973 ft | 11 kts | 321° |
| 2026-05-07 10:39 | 49.25062 | 28.60278 | 979 ft | 6 kts | 132° |
| 2026-05-07 10:40 | 49.25056 | 28.60286 | 973 ft | 0 kts | 137° |
| 2026-05-07 10:40 | 49.24929 | 28.60458 | 976 ft | 60 kts | 139° |
| 2026-05-07 10:40 | 49.24445 | 28.61120 | 972 ft | 124 kts | 139° |
| 2026-05-07 10:40 | 49.23670 | 28.62158 | 1089 ft | 161 kts | 138° |
| 2026-05-07 10:41 | 49.22838 | 28.63228 | 1789 ft | 156 kts | 142° |
| 2026-05-07 10:41 | 49.21984 | 28.64309 | 2274 ft | 165 kts | 146° |
| 2026-05-07 10:41 | 49.21033 | 28.65494 | 2466 ft | 188 kts | 145° |
| 2026-05-07 10:41 | 49.19961 | 28.66827 | 2689 ft | 209 kts | 145° |
| 2026-05-07 10:42 | 49.18762 | 28.68326 | 2847 ft | 235 kts | 144° |
| 2026-05-07 10:42 | 49.17564 | 28.70042 | 3278 ft | 254 kts | 129° |
| 2026-05-07 10:42 | 49.16999 | 28.72677 | 3843 ft | 274 kts | 93° |
| 2026-05-07 10:42 | 49.17554 | 28.75489 | 4666 ft | 286 kts | 59° |
| 2026-05-07 10:43 | 49.18914 | 28.77693 | 5425 ft | 293 kts | 37° |
| 2026-05-07 10:43 | 49.20768 | 28.78991 | 6224 ft | 297 kts | 11° |
| 2026-05-07 10:43 | 49.22823 | 28.78987 | 6896 ft | 298 kts | 343° |
| 2026-05-07 10:43 | 49.24656 | 28.77623 | 7677 ft | 292 kts | 318° |
| 2026-05-07 10:44 | 49.25954 | 28.75281 | 8422 ft | 289 kts | 298° |
| 2026-05-07 10:44 | 49.26529 | 28.72375 | 9145 ft | 287 kts | 274° |
| 2026-05-07 10:44 | 49.26760 | 28.69321 | 9891 ft | 289 kts | 274° |
| 2026-05-07 10:44 | 49.26994 | 28.66227 | 10371 ft | 301 kts | 273° |
| 2026-05-07 10:45 | 49.27244 | 28.62922 | 10523 ft | 324 kts | 274° |
| 2026-05-07 10:45 | 49.27504 | 28.59410 | 10873 ft | 336 kts | 272° |
| 2026-05-07 10:45 | 49.27486 | 28.55839 | 11537 ft | 335 kts | 260° |
| 2026-05-07 10:45 | 49.27049 | 28.52342 | 12165 ft | 336 kts | 253° |
| 2026-05-07 10:46 | 49.26449 | 28.48869 | 12841 ft | 338 kts | 253° |
| 2026-05-07 10:46 | 49.25834 | 28.45364 | 13450 ft | 343 kts | 253° |
| 2026-05-07 10:46 | 49.25212 | 28.41831 | 14133 ft | 344 kts | 253° |
| 2026-05-07 10:46 | 49.24582 | 28.38265 | 14734 ft | 347 kts | 253° |
| 2026-05-07 10:47 | 49.23955 | 28.34733 | 15337 ft | 349 kts | 253° |
| 2026-05-07 10:47 | 49.23317 | 28.31130 | 15913 ft | 352 kts | 253° |
| 2026-05-07 10:47 | 49.22676 | 28.27488 | 16462 ft | 357 kts | 253° |
| 2026-05-07 10:47 | 49.22028 | 28.23803 | 17078 ft | 359 kts | 252° |
| 2026-05-07 10:48 | 49.21377 | 28.20091 | 17651 ft | 362 kts | 252° |
| 2026-05-07 10:48 | 49.20720 | 28.16373 | 18250 ft | 364 kts | 253° |
| 2026-05-07 10:48 | 49.20049 | 28.12609 | 18748 ft | 367 kts | 253° |
| 2026-05-07 10:48 | 49.19370 | 28.08814 | 19214 ft | 372 kts | 253° |
| 2026-05-07 10:49 | 49.18687 | 28.04986 | 19718 ft | 374 kts | 253° |
| 2026-05-07 10:49 | 49.18001 | 28.01150 | 20229 ft | 376 kts | 253° |
| 2026-05-07 10:49 | 49.17306 | 27.97280 | 20746 ft | 379 kts | 253° |
| 2026-05-07 10:49 | 49.16613 | 27.93440 | 21225 ft | 382 kts | 253° |
| 2026-05-07 10:50 | 49.15890 | 27.89454 | 21663 ft | 386 kts | 252° |
| 2026-05-07 10:50 | 49.14929 | 27.85695 | 22142 ft | 387 kts | 242° |
| 2026-05-07 10:50 | 49.13498 | 27.82199 | 22674 ft | 388 kts | 232° |
| 2026-05-07 10:50 | 49.11702 | 27.79095 | 23106 ft | 392 kts | 227° |
| 2026-05-07 10:51 | 49.09818 | 27.76041 | 23468 ft | 397 kts | 227° |
| 2026-05-07 10:51 | 49.07919 | 27.72967 | 23890 ft | 399 kts | 227° |
| 2026-05-07 10:51 | 49.06020 | 27.69887 | 24346 ft | 398 kts | 227° |
| 2026-05-07 10:51 | 49.04117 | 27.66791 | 24668 ft | 402 kts | 227° |
| 2026-05-07 10:52 | 49.02216 | 27.63705 | 25013 ft | 405 kts | 227° |
| 2026-05-07 10:52 | 49.00280 | 27.60571 | 25370 ft | 407 kts | 228° |
| 2026-05-07 10:52 | 48.98333 | 27.57424 | 25773 ft | 408 kts | 228° |
| 2026-05-07 10:52 | 48.96374 | 27.54263 | 26102 ft | 411 kts | 228° |
| 2026-05-07 10:53 | 48.94403 | 27.51088 | 26393 ft | 415 kts | 228° |
| 2026-05-07 10:53 | 48.92419 | 27.47895 | 26766 ft | 417 kts | 228° |
| 2026-05-07 10:53 | 48.90422 | 27.44689 | 27116 ft | 418 kts | 228° |
| 2026-05-07 10:53 | 48.88420 | 27.41470 | 27444 ft | 421 kts | 229° |
| 2026-05-07 10:54 | 48.86399 | 27.38221 | 27731 ft | 424 kts | 228° |
| 2026-05-07 10:54 | 48.84365 | 27.34947 | 28083 ft | 426 kts | 228° |
| 2026-05-07 10:54 | 48.82327 | 27.31673 | 28447 ft | 427 kts | 227° |
| 2026-05-07 10:54 | 48.80274 | 27.28387 | 28742 ft | 430 kts | 228° |
| 2026-05-07 10:55 | 48.78237 | 27.25135 | 29026 ft | 432 kts | 229° |
| 2026-05-07 10:55 | 48.76157 | 27.21824 | 29342 ft | 434 kts | 228° |
| 2026-05-07 10:55 | 48.74069 | 27.18503 | 29654 ft | 436 kts | 227° |
| 2026-05-07 10:55 | 48.71974 | 27.15176 | 29935 ft | 439 kts | 228° |
| 2026-05-07 10:56 | 48.69858 | 27.11818 | 30216 ft | 440 kts | 228° |
| 2026-05-07 10:56 | 48.67736 | 27.08447 | 30507 ft | 442 kts | 228° |
| 2026-05-07 10:56 | 48.65608 | 27.05067 | 30788 ft | 443 kts | 228° |
| 2026-05-07 10:56 | 48.63478 | 27.01689 | 31122 ft | 443 kts | 227° |
| 2026-05-07 10:57 | 48.61356 | 26.98329 | 31513 ft | 442 kts | 228° |
| 2026-05-07 10:57 | 48.59262 | 26.95018 | 31901 ft | 440 kts | 228° |
| 2026-05-07 10:57 | 48.57151 | 26.91683 | 32271 ft | 439 kts | 228° |
| 2026-05-07 10:57 | 48.55038 | 26.88357 | 32622 ft | 439 kts | 228° |
| 2026-05-07 10:58 | 48.52923 | 26.85038 | 32988 ft | 438 kts | 228° |
| 2026-05-07 10:58 | 48.50811 | 26.81728 | 33362 ft | 437 kts | 228° |
| 2026-05-07 10:58 | 48.48705 | 26.78428 | 33724 ft | 436 kts | 228° |
| 2026-05-07 10:58 | 48.46604 | 26.75138 | 34073 ft | 435 kts | 228° |
| 2026-05-07 10:59 | 48.44510 | 26.71864 | 34378 ft | 434 kts | 228° |
| 2026-05-07 10:59 | 48.42417 | 26.68596 | 34686 ft | 433 kts | 228° |
| 2026-05-07 10:59 | 48.40329 | 26.65339 | 34973 ft | 432 kts | 228° |
| 2026-05-07 10:59 | 48.38248 | 26.62090 | 35272 ft | 430 kts | 228° |
| 2026-05-07 11:00 | 48.36171 | 26.58851 | 35579 ft | 429 kts | 228° |
| 2026-05-07 11:00 | 48.34100 | 26.55625 | 35870 ft | 429 kts | 228° |
| 2026-05-07 11:00 | 48.32028 | 26.52405 | 35984 ft | 428 kts | 228° |
| 2026-05-07 11:00 | 48.29955 | 26.49192 | 35997 ft | 427 kts | 228° |
| 2026-05-07 11:01 | 48.25823 | 26.42801 | 35995 ft | 426 kts | 228° |
| 2026-05-07 11:01 | 48.21721 | 26.36454 | 35987 ft | 425 kts | 228° |
| 2026-05-07 11:02 | 48.17597 | 26.30110 | 35989 ft | 424 kts | 228° |
| 2026-05-07 11:02 | 48.13481 | 26.23794 | 35989 ft | 424 kts | 228° |
| 2026-05-07 11:03 | 48.09356 | 26.17463 | 35990 ft | 424 kts | 228° |
| 2026-05-07 11:03 | 48.05226 | 26.11145 | 35995 ft | 425 kts | 227° |
| 2026-05-07 11:04 | 48.01084 | 26.04835 | 36000 ft | 425 kts | 227° |
| 2026-05-07 11:04 | 47.96962 | 25.98575 | 36004 ft | 426 kts | 226° |
| 2026-05-07 11:05 | 47.92121 | 25.93445 | 36007 ft | 431 kts | 210° |
| 2026-05-07 11:05 | 47.87695 | 25.90017 | 36001 ft | 431 kts | 210° |
| 2026-05-07 11:06 | 47.82377 | 25.85893 | 36012 ft | 430 kts | 210° |
| 2026-05-07 11:06 | 47.77071 | 25.81783 | 36012 ft | 429 kts | 211° |
| 2026-05-07 11:07 | 47.71778 | 25.77683 | 36010 ft | 429 kts | 211° |
| 2026-05-07 11:07 | 47.66486 | 25.73596 | 35999 ft | 428 kts | 210° |
| 2026-05-07 11:08 | 47.61192 | 25.69531 | 36003 ft | 429 kts | 210° |
| 2026-05-07 11:08 | 47.55896 | 25.65462 | 36007 ft | 429 kts | 210° |
| 2026-05-07 11:09 | 47.50595 | 25.61404 | 36014 ft | 428 kts | 210° |
| 2026-05-07 11:09 | 47.45299 | 25.57360 | 36004 ft | 429 kts | 210° |
| 2026-05-07 11:10 | 47.40036 | 25.53343 | 36019 ft | 429 kts | 210° |
| 2026-05-07 11:10 | 47.34732 | 25.49296 | 36024 ft | 429 kts | 210° |
| 2026-05-07 11:11 | 47.29424 | 25.45270 | 36021 ft | 429 kts | 210° |
| 2026-05-07 11:11 | 47.24104 | 25.41246 | 36029 ft | 429 kts | 210° |
| 2026-05-07 11:12 | 47.18800 | 25.37239 | 36022 ft | 428 kts | 210° |
| 2026-05-07 11:12 | 47.13494 | 25.33237 | 36036 ft | 428 kts | 210° |
| 2026-05-07 11:13 | 47.08193 | 25.29249 | 36021 ft | 428 kts | 210° |
| 2026-05-07 11:13 | 47.02894 | 25.25271 | 36017 ft | 427 kts | 210° |
| 2026-05-07 11:14 | 46.97606 | 25.21299 | 36029 ft | 427 kts | 210° |
| 2026-05-07 11:14 | 46.92336 | 25.17361 | 36026 ft | 427 kts | 210° |
| 2026-05-07 11:15 | 46.87030 | 25.13419 | 36010 ft | 428 kts | 210° |
| 2026-05-07 11:15 | 46.81724 | 25.09479 | 36017 ft | 428 kts | 210° |
| 2026-05-07 11:16 | 46.76413 | 25.05530 | 36020 ft | 428 kts | 210° |
| 2026-05-07 11:16 | 46.71097 | 25.01589 | 36004 ft | 429 kts | 210° |
| 2026-05-07 11:17 | 46.65782 | 24.97661 | 36007 ft | 429 kts | 210° |
| 2026-05-07 11:17 | 46.60459 | 24.93739 | 36019 ft | 429 kts | 210° |
| 2026-05-07 11:18 | 46.55131 | 24.89820 | 36021 ft | 428 kts | 210° |
| 2026-05-07 11:18 | 46.49810 | 24.85914 | 36013 ft | 428 kts | 210° |
| 2026-05-07 11:19 | 46.44526 | 24.82043 | 36016 ft | 428 kts | 210° |
| 2026-05-07 11:19 | 46.39210 | 24.78150 | 36019 ft | 428 kts | 210° |
| 2026-05-07 11:20 | 46.33886 | 24.74271 | 36020 ft | 428 kts | 210° |
| 2026-05-07 11:20 | 46.28571 | 24.70413 | 36017 ft | 427 kts | 209° |
| 2026-05-07 11:21 | 46.23255 | 24.66557 | 36020 ft | 427 kts | 209° |
| 2026-05-07 11:21 | 46.17947 | 24.62711 | 36020 ft | 427 kts | 210° |
| 2026-05-07 11:22 | 46.12667 | 24.58886 | 36005 ft | 427 kts | 210° |
| 2026-05-07 11:22 | 46.07347 | 24.55044 | 36012 ft | 428 kts | 210° |
| 2026-05-07 11:23 | 46.02002 | 24.51201 | 36016 ft | 428 kts | 210° |
| 2026-05-07 11:23 | 45.96657 | 24.47377 | 36019 ft | 429 kts | 210° |
| 2026-05-07 11:24 | 45.91350 | 24.43577 | 36024 ft | 428 kts | 210° |
| 2026-05-07 11:24 | 45.86010 | 24.39748 | 36036 ft | 428 kts | 209° |
| 2026-05-07 11:25 | 45.80677 | 24.35941 | 36051 ft | 428 kts | 209° |
| 2026-05-07 11:25 | 45.75285 | 24.32281 | 36043 ft | 429 kts | 206° |
| 2026-05-07 11:26 | 45.69723 | 24.29077 | 36053 ft | 430 kts | 204° |
| 2026-05-07 11:26 | 45.64170 | 24.26021 | 36066 ft | 430 kts | 204° |
| 2026-05-07 11:27 | 45.58600 | 24.22865 | 36071 ft | 430 kts | 205° |
| 2026-05-07 11:27 | 45.53052 | 24.19661 | 36076 ft | 430 kts | 205° |
| 2026-05-07 11:28 | 45.47511 | 24.16447 | 36089 ft | 429 kts | 205° |
| 2026-05-07 11:28 | 45.41968 | 24.13261 | 36090 ft | 429 kts | 205° |
| 2026-05-07 11:29 | 45.36458 | 24.10106 | 36086 ft | 430 kts | 205° |
| 2026-05-07 11:29 | 45.30926 | 24.06946 | 36089 ft | 428 kts | 205° |
| 2026-05-07 11:30 | 45.25399 | 24.03799 | 36097 ft | 427 kts | 205° |
| 2026-05-07 11:30 | 45.19879 | 24.00658 | 36096 ft | 427 kts | 205° |
| 2026-05-07 11:31 | 45.14371 | 23.97531 | 36104 ft | 425 kts | 205° |
| 2026-05-07 11:31 | 45.08879 | 23.94423 | 36110 ft | 424 kts | 205° |
| 2026-05-07 11:32 | 45.00662 | 23.89777 | 36104 ft | 423 kts | 205° |
| 2026-05-07 11:33 | 44.95242 | 23.86715 | 36109 ft | 422 kts | 205° |
| 2026-05-07 11:33 | 44.89790 | 23.83643 | 36101 ft | 421 kts | 205° |
| 2026-05-07 11:34 | 44.84350 | 23.80599 | 36101 ft | 420 kts | 205° |
| 2026-05-07 11:34 | 44.78923 | 23.77565 | 36102 ft | 419 kts | 205° |
| 2026-05-07 11:35 | 44.73502 | 23.74523 | 36103 ft | 419 kts | 205° |
| 2026-05-07 11:35 | 44.68085 | 23.71496 | 36095 ft | 418 kts | 205° |
| 2026-05-07 11:36 | 44.62666 | 23.68486 | 36089 ft | 419 kts | 205° |
| 2026-05-07 11:36 | 44.57248 | 23.65476 | 36094 ft | 419 kts | 205° |
| 2026-05-07 11:37 | 44.51832 | 23.62473 | 36098 ft | 419 kts | 205° |
| 2026-05-07 11:37 | 44.46443 | 23.59499 | 36100 ft | 418 kts | 205° |
| 2026-05-07 11:38 | 44.41025 | 23.56510 | 36102 ft | 418 kts | 205° |
| 2026-05-07 11:38 | 44.35619 | 23.53524 | 36102 ft | 417 kts | 205° |
| 2026-05-07 11:39 | 44.30211 | 23.50550 | 36100 ft | 417 kts | 205° |
| 2026-05-07 11:39 | 44.24844 | 23.47599 | 36102 ft | 417 kts | 205° |
| 2026-05-07 11:40 | 44.19447 | 23.44637 | 36104 ft | 417 kts | 205° |
| 2026-05-07 11:40 | 44.14042 | 23.41674 | 36101 ft | 417 kts | 205° |
| 2026-05-07 11:41 | 44.08642 | 23.38725 | 36096 ft | 417 kts | 204° |
| 2026-05-07 11:41 | 44.03241 | 23.35789 | 36099 ft | 416 kts | 204° |
| 2026-05-07 11:42 | 43.97840 | 23.32859 | 36099 ft | 416 kts | 204° |
| 2026-05-07 11:42 | 43.92478 | 23.29955 | 36094 ft | 416 kts | 204° |
| 2026-05-07 11:43 | 43.87086 | 23.27035 | 36093 ft | 415 kts | 204° |
| 2026-05-07 11:43 | 43.81940 | 23.23506 | 36094 ft | 410 kts | 218° |
| 2026-05-07 11:44 | 43.77410 | 23.18717 | 36096 ft | 410 kts | 219° |
| 2026-05-07 11:44 | 43.72869 | 23.13928 | 36089 ft | 410 kts | 219° |
| 2026-05-07 11:45 | 43.68359 | 23.09179 | 36097 ft | 410 kts | 219° |
| 2026-05-07 11:45 | 43.63813 | 23.04408 | 36098 ft | 410 kts | 219° |
| 2026-05-07 11:46 | 43.59274 | 22.99643 | 36097 ft | 410 kts | 219° |
| 2026-05-07 11:46 | 43.54722 | 22.94866 | 36098 ft | 411 kts | 219° |
| 2026-05-07 11:47 | 43.50186 | 22.90122 | 36100 ft | 411 kts | 219° |
| 2026-05-07 11:47 | 43.45615 | 22.85359 | 36106 ft | 412 kts | 219° |
| 2026-05-07 11:48 | 43.41038 | 22.80601 | 36102 ft | 412 kts | 219° |
| 2026-05-07 11:48 | 43.36595 | 22.75616 | 36114 ft | 411 kts | 228° |
| 2026-05-07 11:49 | 43.32753 | 22.69855 | 36117 ft | 411 kts | 228° |
| 2026-05-07 11:49 | 43.28880 | 22.64079 | 36135 ft | 411 kts | 228° |
| 2026-05-07 11:50 | 43.24995 | 22.58300 | 36129 ft | 412 kts | 228° |
| 2026-05-07 11:50 | 43.21103 | 22.52523 | 36138 ft | 412 kts | 228° |
| 2026-05-07 11:51 | 43.17205 | 22.46750 | 36138 ft | 412 kts | 228° |
| 2026-05-07 11:51 | 43.13303 | 22.40990 | 36140 ft | 412 kts | 227° |
| 2026-05-07 11:52 | 43.09407 | 22.35236 | 36151 ft | 412 kts | 227° |
| 2026-05-07 11:52 | 43.06165 | 22.30445 | 36152 ft | 413 kts | 227° |
| 2026-05-07 11:53 | 43.01619 | 22.23757 | 36137 ft | 412 kts | 227° |
| 2026-05-07 11:53 | 42.98371 | 22.18996 | 36132 ft | 413 kts | 227° |
| 2026-05-07 11:54 | 42.94449 | 22.13264 | 36139 ft | 414 kts | 227° |
| 2026-05-07 11:54 | 42.90511 | 22.07516 | 36134 ft | 414 kts | 227° |
| 2026-05-07 11:55 | 42.86590 | 22.01787 | 36131 ft | 413 kts | 226° |
| 2026-05-07 11:55 | 42.82669 | 21.96065 | 36136 ft | 413 kts | 227° |
| 2026-05-07 11:56 | 42.78732 | 21.90353 | 36137 ft | 413 kts | 227° |
| 2026-05-07 11:56 | 42.74799 | 21.84646 | 36145 ft | 413 kts | 227° |
| 2026-05-07 11:57 | 42.70896 | 21.78986 | 36170 ft | 413 kts | 227° |
| 2026-05-07 11:57 | 42.66960 | 21.73293 | 36162 ft | 412 kts | 227° |
| 2026-05-07 11:58 | 42.63028 | 21.67635 | 36163 ft | 411 kts | 227° |
| 2026-05-07 11:58 | 42.59097 | 21.61982 | 36165 ft | 411 kts | 227° |
| 2026-05-07 11:59 | 42.55197 | 21.56381 | 36160 ft | 410 kts | 227° |
| 2026-05-07 11:59 | 42.51275 | 21.50753 | 36147 ft | 410 kts | 227° |
| 2026-05-07 12:00 | 42.47372 | 21.45161 | 36147 ft | 410 kts | 227° |
| 2026-05-07 12:00 | 42.43452 | 21.39562 | 36149 ft | 410 kts | 227° |
| 2026-05-07 12:01 | 42.39520 | 21.33960 | 36150 ft | 410 kts | 227° |
| 2026-05-07 12:01 | 42.35609 | 21.28392 | 35515 ft | 415 kts | 226° |
| 2026-05-07 12:01 | 42.33613 | 21.25561 | 34878 ft | 416 kts | 226° |
| 2026-05-07 12:02 | 42.31620 | 21.22739 | 34424 ft | 412 kts | 226° |
| 2026-05-07 12:02 | 42.29644 | 21.19943 | 33942 ft | 409 kts | 226° |
| 2026-05-07 12:02 | 42.27687 | 21.17175 | 33491 ft | 405 kts | 226° |
| 2026-05-07 12:02 | 42.25754 | 21.14443 | 33048 ft | 400 kts | 226° |
| 2026-05-07 12:03 | 42.23864 | 21.11773 | 32608 ft | 396 kts | 225° |
| 2026-05-07 12:03 | 42.21968 | 21.09100 | 32177 ft | 391 kts | 225° |
| 2026-05-07 12:03 | 42.20099 | 21.06462 | 31719 ft | 387 kts | 225° |
| 2026-05-07 12:03 | 42.18248 | 21.03851 | 31307 ft | 383 kts | 225° |
| 2026-05-07 12:04 | 42.16413 | 21.01269 | 30885 ft | 379 kts | 225° |
| 2026-05-07 12:04 | 42.14593 | 20.98709 | 30471 ft | 375 kts | 225° |
| 2026-05-07 12:04 | 42.12799 | 20.96184 | 30026 ft | 372 kts | 225° |
| 2026-05-07 12:04 | 42.11019 | 20.93680 | 29609 ft | 367 kts | 226° |
| 2026-05-07 12:05 | 42.09261 | 20.91207 | 29207 ft | 363 kts | 226° |
| 2026-05-07 12:05 | 42.07523 | 20.88771 | 28822 ft | 359 kts | 225° |
| 2026-05-07 12:05 | 42.05802 | 20.86362 | 28450 ft | 355 kts | 225° |
| 2026-05-07 12:05 | 42.04117 | 20.84004 | 28079 ft | 352 kts | 225° |
| 2026-05-07 12:06 | 42.02428 | 20.81642 | 27722 ft | 348 kts | 225° |
| 2026-05-07 12:06 | 42.00751 | 20.79298 | 27367 ft | 346 kts | 225° |
| 2026-05-07 12:06 | 41.99087 | 20.76976 | 27009 ft | 342 kts | 225° |
| 2026-05-07 12:06 | 41.97447 | 20.74690 | 26672 ft | 339 kts | 225° |
| 2026-05-07 12:07 | 41.95831 | 20.72438 | 26328 ft | 335 kts | 225° |
| 2026-05-07 12:07 | 41.94223 | 20.70195 | 25985 ft | 331 kts | 226° |
| 2026-05-07 12:07 | 41.92632 | 20.67978 | 25626 ft | 328 kts | 226° |
| 2026-05-07 12:07 | 41.91058 | 20.65783 | 25290 ft | 324 kts | 226° |
| 2026-05-07 12:08 | 41.89504 | 20.63620 | 24949 ft | 320 kts | 226° |
| 2026-05-07 12:08 | 41.87960 | 20.61481 | 24598 ft | 318 kts | 226° |
| 2026-05-07 12:08 | 41.86429 | 20.59363 | 24239 ft | 315 kts | 226° |
| 2026-05-07 12:08 | 41.84912 | 20.57261 | 23894 ft | 312 kts | 226° |
| 2026-05-07 12:09 | 41.83407 | 20.55177 | 23502 ft | 310 kts | 226° |
| 2026-05-07 12:09 | 41.81914 | 20.53112 | 23147 ft | 307 kts | 226° |
| 2026-05-07 12:09 | 41.80427 | 20.51057 | 22780 ft | 306 kts | 226° |
| 2026-05-07 12:09 | 41.78950 | 20.49014 | 22430 ft | 305 kts | 227° |
| 2026-05-07 12:10 | 41.77481 | 20.46980 | 22077 ft | 304 kts | 227° |
| 2026-05-07 12:10 | 41.76006 | 20.44945 | 21704 ft | 304 kts | 227° |
| 2026-05-07 12:10 | 41.74534 | 20.42916 | 21353 ft | 304 kts | 227° |
| 2026-05-07 12:10 | 41.73064 | 20.40886 | 20993 ft | 303 kts | 227° |
| 2026-05-07 12:11 | 41.71625 | 20.38837 | 20506 ft | 301 kts | 234° |
| 2026-05-07 12:11 | 41.70664 | 20.36382 | 19714 ft | 298 kts | 255° |
| 2026-05-07 12:11 | 41.70350 | 20.33765 | 18993 ft | 295 kts | 262° |
| 2026-05-07 12:11 | 41.70128 | 20.31076 | 18250 ft | 293 kts | 263° |
| 2026-05-07 12:12 | 41.69904 | 20.28330 | 17023 ft | 302 kts | 263° |
| 2026-05-07 12:12 | 41.69679 | 20.25551 | 16266 ft | 296 kts | 263° |
| 2026-05-07 12:12 | 41.69455 | 20.22781 | 15092 ft | 304 kts | 263° |
| 2026-05-07 12:12 | 41.69221 | 20.19956 | 14079 ft | 306 kts | 263° |
| 2026-05-07 12:13 | 41.68986 | 20.17143 | 13077 ft | 303 kts | 263° |
| 2026-05-07 12:13 | 41.68755 | 20.14389 | 12526 ft | 290 kts | 263° |
| 2026-05-07 12:13 | 41.68535 | 20.11762 | 11903 ft | 280 kts | 262° |
| 2026-05-07 12:13 | 41.68319 | 20.09192 | 11174 ft | 276 kts | 262° |
| 2026-05-07 12:14 | 41.68105 | 20.06655 | 10467 ft | 272 kts | 262° |
| 2026-05-07 12:14 | 41.67893 | 20.04148 | 9713 ft | 270 kts | 262° |
| 2026-05-07 12:14 | 41.67683 | 20.01663 | 8936 ft | 268 kts | 262° |
| 2026-05-07 12:14 | 41.67474 | 19.99197 | 8160 ft | 266 kts | 262° |
| 2026-05-07 12:15 | 41.67264 | 19.96738 | 7362 ft | 266 kts | 262° |
| 2026-05-07 12:15 | 41.67059 | 19.94329 | 6741 ft | 261 kts | 262° |
| 2026-05-07 12:15 | 41.66856 | 19.91919 | 6408 ft | 260 kts | 262° |
| 2026-05-07 12:15 | 41.66652 | 19.89518 | 6073 ft | 259 kts | 261° |
| 2026-05-07 12:16 | 41.66447 | 19.87123 | 5755 ft | 257 kts | 261° |
| 2026-05-07 12:16 | 41.66243 | 19.84752 | 5433 ft | 256 kts | 261° |
| 2026-05-07 12:16 | 41.66048 | 19.82495 | 5139 ft | 243 kts | 261° |
| 2026-05-07 12:16 | 41.65856 | 19.80287 | 5005 ft | 241 kts | 259° |
| 2026-05-07 12:17 | 41.65661 | 19.78064 | 4896 ft | 238 kts | 259° |
| 2026-05-07 12:17 | 41.65469 | 19.75864 | 4793 ft | 240 kts | 259° |
| 2026-05-07 12:17 | 41.65135 | 19.73661 | 4346 ft | 245 kts | 244° |
| 2026-05-07 12:17 | 41.64282 | 19.71780 | 4157 ft | 229 kts | 225° |
| 2026-05-07 12:18 | 41.63107 | 19.70464 | 3996 ft | 213 kts | 209° |
| 2026-05-07 12:18 | 41.61782 | 19.69728 | 3790 ft | 207 kts | 193° |
| 2026-05-07 12:18 | 41.60371 | 19.69542 | 3551 ft | 207 kts | 177° |
| 2026-05-07 12:18 | 41.58943 | 19.69726 | 3307 ft | 203 kts | 174° |
| 2026-05-07 12:19 | 41.57577 | 19.69910 | 3030 ft | 189 kts | 174° |
| 2026-05-07 12:19 | 41.56314 | 19.70079 | 2784 ft | 178 kts | 174° |
| 2026-05-07 12:19 | 41.55110 | 19.70240 | 2544 ft | 169 kts | 174° |
| 2026-05-07 12:19 | 41.53967 | 19.70392 | 2335 ft | 162 kts | 174° |
| 2026-05-07 12:20 | 41.52853 | 19.70541 | 2122 ft | 159 kts | 174° |
| 2026-05-07 12:20 | 41.51765 | 19.70686 | 1928 ft | 155 kts | 174° |
| 2026-05-07 12:20 | 41.50701 | 19.70827 | 1713 ft | 154 kts | 173° |
| 2026-05-07 12:20 | 41.49662 | 19.70966 | 1516 ft | 145 kts | 173° |
| 2026-05-07 12:21 | 41.48683 | 19.71096 | 1316 ft | 139 kts | 173° |
| 2026-05-07 12:21 | 41.47723 | 19.71224 | 1124 ft | 138 kts | 173° |
| 2026-05-07 12:21 | 41.46766 | 19.71352 | 944 ft | 137 kts | 173° |
| 2026-05-07 12:21 | 41.45830 | 19.71476 | 753 ft | 137 kts | 172° |
| 2026-05-07 12:22 | 41.44883 | 19.71601 | 562 ft | 137 kts | 173° |
| 2026-05-07 12:22 | 41.43911 | 19.71734 | 416 ft | 141 kts | 173° |
| 2026-05-07 12:22 | 41.42974 | 19.71859 | 213 ft | 137 kts | 173° |
| 2026-05-07 12:22 | 41.42059 | 19.71980 | 124 ft | 122 kts | 174° |
| 2026-05-07 12:23 | 41.41458 | 19.72061 | 126 ft | 64 kts | 174° |
| 2026-05-07 12:23 | 41.41061 | 19.72112 | 133 ft | 56 kts | 174° |
| 2026-05-07 12:23 | 41.40722 | 19.72159 | 134 ft | 29 kts | 173° |
| 2026-05-07 12:23 | 41.40677 | 19.72121 | 134 ft | 5 kts | 284° |
| 2026-05-07 12:24 | 41.40672 | 19.72048 | 132 ft | 17 kts | 256° |
| 2026-05-07 12:24 | 41.40657 | 19.71969 | 132 ft | 0 kts | 256° |
| 2026-05-07 12:24 | 41.40657 | 19.71968 | 132 ft | 1 kts | 256° |
| 2026-05-07 12:25 | 41.40645 | 19.71904 | 132 ft | 16 kts | 256° |
| 2026-05-07 12:25 | 41.40688 | 19.71770 | 132 ft | 18 kts | 345° |
| 2026-05-07 12:25 | 41.40814 | 19.71748 | 132 ft | 19 kts | 350° |
| 2026-05-07 12:25 | 41.40952 | 19.71716 | 127 ft | 21 kts | 352° |
| 2026-05-07 12:26 | 41.41099 | 19.71694 | 130 ft | 22 kts | 355° |
| 2026-05-07 12:26 | 41.41258 | 19.71674 | 125 ft | 24 kts | 354° |
| 2026-05-07 12:26 | 41.41430 | 19.71650 | 124 ft | 26 kts | 354° |
| 2026-05-07 12:26 | 41.41606 | 19.71626 | 123 ft | 27 kts | 354° |
| 2026-05-07 12:27 | 41.41793 | 19.71601 | 122 ft | 26 kts | 354° |
| 2026-05-07 12:27 | 41.41978 | 19.71577 | 122 ft | 28 kts | 355° |
| 2026-05-07 12:27 | 41.42172 | 19.71550 | 117 ft | 28 kts | 354° |
| 2026-05-07 12:27 | 41.42295 | 19.71527 | 118 ft | 6 kts | 320° |
| 2026-05-07 12:28 | 41.42301 | 19.71473 | 120 ft | 3 kts | 262° |
| 2026-05-07 12:28 | 41.42300 | 19.71467 | 120 ft | 0 kts | 261° |